Athens, OH

2:09 PM EDT on May 28, 2017 (GMT -0400)
Ohio University

Weather History for KUNI - November, 2012

Change the Weather History Date:

Monday, November 5, 2012

  Actual Average (KPKB) Record (KPKB)
Temperature  
Mean Temperature 38 °F -  
Max Temperature 47 °F 55 °F 83 °F (1948)
Min Temperature 28 °F 39 °F 12 °F (1991)
Degree Days  
Heating Degree Days 28    
Moisture  
Dew Point 28 °F    
Average Humidity 73    
Maximum Humidity 96    
Minimum Humidity 43    
Precipitation  
Precipitation 0.00 in - - ()
Sea Level Pressure  
Sea Level Pressure 30.14 in    
Wind  
Wind Speed 1 mph (NE)    
Max Wind Speed 7 mph    
Max Gust Speed -    
Visibility 10 miles    
Events      
Averages and records for this station are not official NWS values.
T = Trace of Precipitation, MM = Missing Value Source: NWS Daily Summary

Daily Weather History Graph

Daily Weather History Graph

Search for Another Location

Airport or City:

Trip Planner

Search our weather history database for the weather conditions in past years. The results will help you decide how hot, cold, wet, or windy it might be!

Date:

Astronomy

Nov. 05, 2012 Rise Set
Actual Time 7:01 AM EST 5:22 PM EST
Civil Twilight 6:33 AM EST 5:50 PM EST
Nautical Twilight 6:01 AM EST 6:22 PM EST
Astronomical Twilight 5:30 AM EST 6:54 PM EST
Moon 10:59 PM EST (11/5) 12:20 PM EST (11/5)
Length of Visible Light 11h 17m
Length of Day
10h 21m
Waning Gibbous, 63% of the Moon is Illuminated
Nov 5
Waning Gibbous
Nov 6
Last Quarter
Nov 13
New
Nov 20
First Quarter
Nov 28
Full

Hourly Weather History & Observations

Time (EST) Temp. Windchill Dew Point Humidity Pressure Visibility Wind Dir Wind Speed Gust Speed Precip Events Conditions
12:55 AM 32.0 °F - 29.7 °F 91% 30.13 in 10.0 mi Calm Calm - N/A   Unknown
1:15 AM 32.0 °F - 30.0 °F 92% 30.13 in 10.0 mi Calm Calm - N/A   Unknown
1:35 AM 32.2 °F - 30.4 °F 93% 30.13 in 10.0 mi Calm Calm - N/A   Unknown
1:55 AM 32.4 °F - 30.6 °F 93% 30.13 in 10.0 mi Calm Calm - N/A   Unknown
2:15 AM 32.9 °F - 30.4 °F 90% 30.13 in 10.0 mi Calm Calm - N/A   Unknown
2:35 AM 32.9 °F - 30.7 °F 92% 30.13 in 10.0 mi Calm Calm - N/A   Unknown
2:55 AM 33.1 °F - 30.9 °F 92% 30.13 in 10.0 mi Calm Calm - N/A   Unknown
3:15 AM 33.1 °F - 31.1 °F 92% 30.13 in 10.0 mi Calm Calm - N/A   Unknown
3:35 AM 33.1 °F - 31.3 °F 93% 30.13 in 10.0 mi Calm Calm - N/A   Unknown
3:55 AM 33.1 °F - 31.5 °F 94% 30.14 in 10.0 mi Calm Calm - N/A   Unknown
4:15 AM 33.1 °F - 31.8 °F 95% 30.14 in 10.0 mi Calm Calm - N/A   Unknown
4:35 AM 33.4 °F - 32.0 °F 94% 30.15 in 10.0 mi Calm Calm - N/A   Unknown
4:55 AM 33.4 °F - 31.6 °F 93% 30.15 in 10.0 mi Calm Calm - N/A   Unknown
5:15 AM 32.0 °F - 30.2 °F 93% 30.15 in 10.0 mi Calm Calm - N/A   Unknown
5:35 AM 32.0 °F - 30.7 °F 95% 30.16 in 10.0 mi Calm Calm - N/A   Unknown
5:55 AM 31.5 °F 28.1 °F 29.8 °F 94% 30.16 in 7.0 mi East 3.5 mph - N/A   Unknown
6:15 AM 31.6 °F 26.0 °F 30.2 °F 94% 30.14 in 10.0 mi ESE 5.8 mph - N/A   Unknown
6:35 AM 30.2 °F - 29.1 °F 96% 30.15 in 10.0 mi Calm Calm - N/A   Unknown
6:55 AM 28.6 °F 23.5 °F 27.3 °F 95% 30.16 in 10.0 mi West 4.6 mph - N/A   Unknown
7:35 AM 32.0 °F - 29.8 °F 92% 30.17 in 10.0 mi Calm Calm - N/A   Unknown
7:55 AM 32.0 °F - 30.0 °F 92% 30.17 in 10.0 mi Calm Calm - N/A   Unknown
8:15 AM 32.9 °F - 30.2 °F 90% 30.17 in 10.0 mi Calm Calm - N/A   Unknown
8:35 AM 33.8 °F - 30.4 °F 87% 30.18 in 10.0 mi Calm Calm - N/A   Unknown
8:55 AM 34.7 °F - 30.4 °F 84% 30.18 in 10.0 mi Calm Calm - N/A   Unknown
9:15 AM 36.0 °F - 30.9 °F 82% 30.18 in 10.0 mi Calm Calm - N/A   Unknown
9:35 AM 38.5 °F - 32.0 °F 78% 30.17 in 10.0 mi Calm Calm - N/A   Unknown
9:55 AM 39.4 °F 37.2 °F 28.2 °F 64% 30.17 in 10.0 mi NNW 3.5 mph - N/A   Unknown
10:35 AM 43.7 °F - 28.9 °F 56% 30.17 in 10.0 mi Calm Calm - N/A   Unknown
10:55 AM 43.5 °F - 27.5 °F 53% 30.17 in 10.0 mi Calm Calm - N/A   Unknown
11:15 AM 41.7 °F 39.8 °F 27.0 °F 56% 30.18 in 10.0 mi NW 3.5 mph - N/A   Unknown
11:35 AM 41.5 °F - 26.2 °F 55% 30.17 in 10.0 mi Calm Calm - N/A   Unknown
11:55 AM 44.2 °F - 26.4 °F 50% 30.17 in 10.0 mi Calm Calm - N/A   Clear
12:35 PM 45.0 °F - 25.9 °F 47% 30.15 in 10.0 mi Calm Calm - N/A   Mostly Cloudy
12:55 PM 44.8 °F 43.3 °F 26.2 °F 48% 30.14 in 10.0 mi South 3.5 mph - N/A   Mostly Cloudy
1:15 PM 45.7 °F - 26.4 °F 47% 30.13 in 10.0 mi Calm Calm - N/A   Scattered Clouds
1:35 PM 45.9 °F 44.6 °F 26.2 °F 46% 30.13 in 10.0 mi ENE 3.5 mph - N/A   Clear
1:55 PM 46.4 °F - 25.9 °F 45% 30.12 in 10.0 mi Calm Calm - N/A   Clear
2:15 PM 46.8 °F - 26.8 °F 46% 30.11 in 10.0 mi Calm Calm - N/A   Clear
2:35 PM 46.4 °F 45.2 °F 25.3 °F 44% 30.11 in 10.0 mi North 3.5 mph - N/A   Clear
2:55 PM 47.3 °F - 26.4 °F 44% 30.10 in 10.0 mi Calm Calm - N/A   Clear
3:35 PM 47.3 °F - 25.5 °F 43% 30.10 in 10.0 mi Calm Calm - N/A   Clear
3:55 PM 47.3 °F - 26.1 °F 44% 30.10 in 10.0 mi Calm Calm - N/A   Clear
4:15 PM 46.9 °F - 25.9 °F 44% 30.10 in 10.0 mi North 3.5 mph - N/A   Clear
4:35 PM 46.9 °F - 25.3 °F 43% 30.10 in 10.0 mi Calm Calm - N/A   Clear
4:55 PM 46.4 °F - 25.5 °F 44% 30.09 in 10.0 mi Calm Calm - N/A   Clear
5:15 PM 45.0 °F - 27.1 °F 50% 30.09 in 10.0 mi Calm Calm - N/A   Clear
5:35 PM 41.9 °F - 27.5 °F 57% 30.09 in 10.0 mi Calm Calm - N/A   Clear
5:55 PM 39.0 °F 34.0 °F 28.4 °F 66% 30.10 in 10.0 mi ENE 6.9 mph - N/A   Clear
6:15 PM 39.2 °F 34.2 °F 28.2 °F 65% 30.11 in 10.0 mi ENE 6.9 mph - N/A   Clear
6:35 PM 40.3 °F 35.5 °F 28.0 °F 62% 30.12 in 10.0 mi ENE 6.9 mph - N/A   Clear
6:55 PM 38.5 °F 34.1 °F 28.0 °F 66% 30.13 in 10.0 mi ENE 5.8 mph - N/A   Clear
7:15 PM 38.1 °F 33.7 °F 27.5 °F 66% 30.13 in 10.0 mi ENE 5.8 mph - N/A   Clear
7:35 PM 37.4 °F 33.8 °F 27.5 °F 67% 30.13 in 10.0 mi NE 4.6 mph - N/A   Clear
7:55 PM 37.6 °F 34.0 °F 27.3 °F 66% 30.13 in 10.0 mi ENE 4.6 mph - N/A   Clear
8:15 PM 36.7 °F 32.9 °F 27.3 °F 69% 30.13 in 10.0 mi ENE 4.6 mph - N/A   Clear
8:35 PM 35.4 °F 32.6 °F 27.1 °F 72% 30.13 in 10.0 mi NE 3.5 mph - N/A   Clear
8:55 PM 34.7 °F 31.8 °F 27.3 °F 74% 30.13 in 10.0 mi NE 3.5 mph - N/A   Clear
9:15 PM 33.8 °F 30.8 °F 27.1 °F 77% 30.14 in 10.0 mi NE 3.5 mph - N/A   Clear
9:35 PM 34.5 °F - 27.0 °F 74% 30.14 in 10.0 mi Calm Calm - N/A   Clear
9:55 PM 32.5 °F - 26.2 °F 78% 30.14 in 10.0 mi Calm Calm - N/A   Clear
10:15 PM 30.7 °F - 26.4 °F 84% 30.14 in 10.0 mi Calm Calm - N/A   Clear
10:35 PM 30.6 °F - 26.4 °F 85% 30.14 in 10.0 mi Calm Calm - N/A   Clear
10:55 PM 29.3 °F - 25.7 °F 86% 30.14 in 10.0 mi Calm Calm - N/A   Clear
11:15 PM 29.8 °F - 26.6 °F 88% 30.13 in 10.0 mi Calm Calm - N/A   Clear
11:35 PM 29.5 °F - 26.8 °F 90% 30.12 in 10.0 mi Calm Calm - N/A   Clear
11:55 PM 29.3 °F - 26.6 °F 90% 30.11 in 10.0 mi Calm Calm - N/A   Clear